Time;durP1;ratioP1;P1;durP2;ratioP2;P2;SDS_P1;SDS_P2;PMS_P1;PMS_P2;Temp;Humidity;BMP_temperature;BMP_pressure;BME280_temperature;BME280_humidity;BME280_pressure;Samples;Min_cycle;Max_cycle;Signal;HPM_P1;HPM_P2
2021/11/17 02:27:57;;;;;;;21.75;10.02;;;;;;;4.74;100.00;96990.34;4892197;29;20052;-64
2021/11/17 02:30:40;;;;;;;19.25;9.90;;;;;;;4.79;100.00;96995.59;4888422;29;20060;-64
2021/11/17 02:33:30;;;;;;;19.42;9.80;;;;;;;4.81;100.00;96999.88;4888929;29;20083;-64
2021/11/17 02:36:22;;;;;;;21.08;9.73;;;;;;;4.74;100.00;96998.47;4898026;29;20071;-62
2021/11/17 02:39:14;;;;;;;19.10;8.98;;;;;;;4.77;100.00;96997.84;4893326;29;20048;-63
2021/11/17 02:41:58;;;;;;;16.23;8.57;;;;;;;4.79;100.00;96995.59;4906045;29;20048;-62
2021/11/17 02:44:48;;;;;;;18.27;9.02;;;;;;;4.91;100.00;96996.84;4887784;29;20866;-63
2021/11/17 02:47:22;;;;;;;;;;;;;;;4.95;100.00;96993.19;4899999;29;20200;-64
2021/11/17 02:49:58;;;;;;;18.42;8.45;;;;;;;5.01;100.00;96993.00;4904629;29;19923;-62
2021/11/17 02:52:56;;;;;;;22.63;9.52;;;;;;;5.02;100.00;96994.59;4905282;29;20253;-63
2021/11/17 02:55:58;;;;;;;16.10;8.20;;;;;;;5.04;100.00;96990.44;4859373;29;21876;-62
2021/11/17 02:58:33;;;;;;;26.20;8.13;;;;;;;4.98;100.00;96987.09;4909530;29;20049;-62
2021/11/17 03:01:43;;;;;;;20.08;9.75;;;;;;;4.94;100.00;96983.44;4897612;29;20054;-64
2021/11/17 03:04:34;;;;;;;16.35;8.27;;;;;;;4.91;100.00;96988.72;4878479;29;20040;-63
2021/11/17 03:07:24;;;;;;;18.20;9.25;;;;;;;4.90;100.00;96998.00;4910371;29;20119;-64
2021/11/17 03:09:55;;;;;;;17.65;8.70;;;;;;;4.93;100.00;96997.31;4905648;29;20091;-63
2021/11/17 03:12:31;;;;;;;18.85;9.30;;;;;;;4.85;100.00;96992.72;4895908;29;20035;-63
2021/11/17 03:15:15;;;;;;;21.33;9.18;;;;;;;4.84;100.00;96997.34;4903618;29;20106;-63
2021/11/17 03:17:47;;;;;;;16.35;8.20;;;;;;;4.86;100.00;96992.41;4893029;29;20426;-64
2021/11/17 03:20:43;;;;;;;15.73;7.97;;;;;;;4.83;100.00;96997.69;4911326;29;20044;-64
2021/11/17 03:23:33;;;;;;;18.95;8.43;;;;;;;4.92;100.00;96991.09;4906165;29;20037;-63
2021/11/17 03:26:14;;;;;;;14.70;7.70;;;;;;;4.92;100.00;96995.75;4920336;29;20071;-62
2021/11/17 03:29:13;;;;;;;14.40;7.50;;;;;;;4.95;100.00;96995.06;4909741;29;20076;-64
2021/11/17 03:31:49;;;;;;;;;;;;;;;4.87;100.00;96996.69;4882163;29;20056;-63
2021/11/17 03:34:14;;;;;;;13.77;6.57;;;;;;;4.89;100.00;97008.03;4895907;29;20679;-63
2021/11/17 03:36:42;;;;;;;12.57;5.95;;;;;;;4.76;100.00;97004.38;4903043;29;20076;-61
2021/11/17 03:39:10;;;;;;;13.32;6.82;;;;;;;4.80;100.00;97007.25;4899061;29;20465;-64
2021/11/17 03:42:01;;;;;;;12.63;5.93;;;;;;;4.94;100.00;96999.72;4910672;29;20044;-64
2021/11/17 03:44:26;;;;;;;11.38;5.65;;;;;;;4.92;100.00;97012.81;4913218;29;20068;-63
2021/11/17 03:47:12;;;;;;;11.60;6.95;;;;;;;4.87;100.00;97001.34;4914259;29;20048;-63
2021/11/17 03:50:07;;;;;;;12.02;6.22;;;;;;;4.92;100.00;96990.31;4902603;29;20123;-63
2021/11/17 03:53:04;;;;;;;14.65;6.55;;;;;;;4.95;100.00;97001.31;4862685;29;20051;-63
2021/11/17 03:55:39;;;;;;;14.90;6.93;;;;;;;5.03;100.00;96993.47;4886039;29;20118;-64
2021/11/17 03:58:38;;;;;;;17.98;7.45;;;;;;;5.03;100.00;96991.56;4900070;29;20048;-64
2021/11/17 04:01:22;;;;;;;17.67;7.93;;;;;;;5.04;100.00;96995.06;4910750;29;20074;-62
2021/11/17 04:04:06;;;;;;;14.43;7.28;;;;;;;4.97;100.00;96990.94;4893508;29;20092;-64
2021/11/17 04:07:02;;;;;;;17.17;8.38;;;;;;;4.85;100.00;96995.44;4895449;29;20056;-61
2021/11/17 04:09:39;;;;;;;16.48;8.20;;;;;;;4.85;100.00;96990.78;4890569;29;20073;-64
2021/11/17 04:12:20;;;;;;;15.15;8.35;;;;;;;4.87;100.00;96999.41;4895383;29;20044;-62
2021/11/17 04:14:58;;;;;;;15.80;8.50;;;;;;;4.87;100.00;97001.34;4890631;29;20056;-63
2021/11/17 04:17:29;;;;;;;17.35;8.18;;;;;;;4.86;100.00;97005.16;4886960;29;20057;-63
2021/11/17 04:20:17;;;;;;;14.88;7.47;;;;;;;4.91;100.00;96997.63;4892544;29;20041;-64
2021/11/17 04:23:02;;;;;;;16.70;7.95;;;;;;;4.88;100.00;96995.59;4898314;29;20045;-64
2021/11/17 04:26:09;;;;;;;15.13;7.13;;;;;;;4.92;100.00;96995.75;4864554;29;20044;-62
2021/11/17 04:28:53;;;;;;;17.25;7.55;;;;;;;4.94;100.00;96991.56;4878974;29;20068;-65
2021/11/17 04:31:21;;;;;;;14.48;6.78;;;;;;;4.90;100.00;97000.69;4885053;29;20044;-64
2021/11/17 04:34:18;;;;;;;13.48;7.38;;;;;;;4.80;100.00;97001.81;4892484;29;20056;-63
2021/11/17 04:37:11;;;;;;;20.58;7.75;;;;;;;4.97;100.00;97009.16;4901161;29;20055;-63
2021/11/17 04:39:52;;;;;;;10.25;5.82;;;;;;;4.96;100.00;97010.25;4891641;29;20097;-64
2021/11/17 04:42:20;;;;;;;11.85;5.80;;;;;;;5.00;100.00;97004.97;4877939;29;20068;-64
2021/11/17 04:45:01;;;;;;;12.73;6.50;;;;;;;4.93;100.00;97011.72;4893203;29;20048;-64
2021/11/17 04:47:42;;;;;;;11.15;6.07;;;;;;;4.97;100.00;97006.44;4890352;29;20095;-63
2021/11/17 04:50:48;;;;;;;11.95;6.63;;;;;;;4.97;100.00;97009.16;4886578;29;20048;-64
2021/11/17 04:53:44;;;;;;;12.48;7.10;;;;;;;4.96;100.00;97005.63;4915495;29;20044;-64
2021/11/17 04:56:31;;;;;;;13.93;6.07;;;;;;;4.91;100.00;97000.34;4899781;29;20456;-63
2021/11/17 04:59:21;;;;;;;12.02;5.60;;;;;;;4.95;100.00;97011.38;4903797;29;20159;-63
2021/11/17 05:02:10;;;;;;;12.02;6.22;;;;;;;4.96;100.00;97004.81;4890571;29;20051;-62
2021/11/17 05:04:38;;;;;;;12.93;6.47;;;;;;;4.92;100.00;97004.69;4873513;29;20052;-61
2021/11/17 05:07:12;;;;;;;10.60;5.70;;;;;;;4.91;100.00;97013.13;4899365;29;20044;-62
2021/11/17 05:09:44;;;;;;;11.48;5.75;;;;;;;4.97;100.00;97011.88;4904413;29;20048;-64
2021/11/17 05:12:21;;;;;;;17.92;6.40;;;;;;;5.01;100.00;97020.16;4884367;29;20044;-64
2021/11/17 05:14:55;;;;;;;13.13;6.40;;;;;;;4.98;100.00;97016.16;4906589;29;20072;-64
2021/11/17 05:17:39;;;;;;;15.98;6.60;;;;;;;5.04;100.00;97012.16;4899277;29;20427;-63
2021/11/17 05:20:29;;;;;;;13.77;5.68;;;;;;;4.98;100.00;97013.44;4901408;29;20469;-64
2021/11/17 05:23:11;;;;;;;14.40;5.95;;;;;;;4.92;100.00;97015.53;4886518;29;20044;-62
2021/11/17 05:25:46;;;;;;;12.77;6.57;;;;;;;4.84;100.00;97019.03;4902920;29;20048;-66
2021/11/17 05:28:40;;;;;;;12.38;5.53;;;;;;;4.82;100.00;97015.84;4900167;29;20075;-64
2021/11/17 05:31:20;;;;;;;10.70;5.70;;;;;;;4.82;100.00;97018.56;4900411;29;20047;-63
2021/11/17 05:34:01;;;;;;;9.85;5.88;;;;;;;4.88;100.00;97021.91;4873120;29;20036;-65
2021/11/17 05:36:42;;;;;;;10.73;5.38;;;;;;;4.96;100.00;97024.63;4883324;29;21488;-65
2021/11/17 05:39:24;;;;;;;14.25;6.45;;;;;;;4.94;100.00;97018.72;4893151;29;20032;-64
2021/11/17 05:42:13;;;;;;;12.57;6.40;;;;;;;4.96;100.00;97018.41;4913512;29;20044;-65
2021/11/17 05:44:48;;;;;;;12.88;6.13;;;;;;;4.95;100.00;97020.31;4877818;29;20147;-66
2021/11/17 05:47:19;;;;;;;11.55;6.05;;;;;;;5.03;100.00;97017.91;4867900;29;20131;-64
2021/11/17 05:49:44;;;;;;;10.65;5.97;;;;;;;4.99;100.00;97023.19;4884059;29;20053;-64
2021/11/17 05:52:16;;;;;;;10.98;5.80;;;;;;;4.93;100.00;97019.03;4880780;29;20051;-63
2021/11/17 05:54:44;;;;;;;10.23;5.75;;;;;;;4.83;100.00;97017.47;4900560;29;20079;-63
2021/11/17 05:57:16;;;;;;;11.32;5.43;;;;;;;4.86;100.00;97016.84;4892844;29;20078;-63
2021/11/17 06:00:04;;;;;;;10.65;5.90;;;;;;;4.89;100.00;97027.03;4882817;29;20112;-64
2021/11/17 06:03:20;;;;;;;12.83;5.90;;;;;;;4.87;100.00;97026.56;4871164;29;20048;-65
2021/11/17 06:05:45;;;;;;;9.68;5.32;;;;;;;4.73;100.00;97037.56;4863078;29;20300;-62
2021/11/17 06:08:10;;;;;;;11.20;6.38;;;;;;;4.68;100.00;97032.34;4894464;29;20092;-62
2021/11/17 06:10:39;;;;;;;11.47;5.47;;;;;;;4.67;100.00;97038.06;4900484;29;20048;-64
2021/11/17 06:13:08;;;;;;;12.27;6.53;;;;;;;4.70;100.00;97034.69;4900303;29;20368;-61
2021/11/17 06:15:35;;;;;;;12.60;6.57;;;;;;;4.67;100.00;97038.88;4904896;29;20052;-65
2021/11/17 06:18:04;;;;;;;12.40;6.55;;;;;;;4.63;100.00;97037.09;4881811;29;20124;-64
2021/11/17 06:20:30;;;;;;;13.35;6.80;;;;;;;4.57;100.00;97040.00;4904929;29;20553;-65
2021/11/17 06:23:08;;;;;;;13.63;7.30;;;;;;;4.55;100.00;97041.41;4903052;29;20047;-64
2021/11/17 06:25:37;;;;;;;12.60;6.30;;;;;;;4.59;100.00;97042.34;4917749;29;20134;-64
2021/11/17 06:28:04;;;;;;;11.07;6.95;;;;;;;4.67;100.00;97040.78;4910747;29;20127;-62
2021/11/17 06:30:38;;;;;;;10.30;6.57;;;;;;;4.83;100.00;97050.03;4895296;29;20056;-64
2021/11/17 06:33:06;;;;;;;13.38;6.53;;;;;;;4.83;100.00;97050.03;4897585;29;20083;-63
2021/11/17 06:35:32;;;;;;;15.23;6.90;;;;;;;4.81;100.00;97055.00;4898819;29;20110;-62
2021/11/17 06:37:58;;;;;;;15.65;7.78;;;;;;;4.87;100.00;97056.41;4901819;29;20136;-62
2021/11/17 06:40:24;;;;;;;15.93;6.80;;;;;;;5.05;100.00;97059.91;4896773;29;20256;-62
2021/11/17 06:42:53;;;;;;;13.20;6.22;;;;;;;5.08;100.00;97056.56;4895325;29;20127;-64
2021/11/17 06:45:26;;;;;;;12.55;6.25;;;;;;;5.12;100.00;97065.63;4871263;29;20520;-64
2021/11/17 06:47:53;;;;;;;13.10;6.25;;;;;;;5.14;100.00;97068.03;4900809;29;20070;-64
2021/11/17 06:50:19;;;;;;;12.10;6.50;;;;;;;5.07;100.00;97079.38;4893717;29;20140;-65
2021/11/17 06:52:46;;;;;;;12.93;6.10;;;;;;;5.11;100.00;97082.25;4903478;29;20047;-64
2021/11/17 06:55:12;;;;;;;10.07;5.68;;;;;;;5.16;100.00;97091.03;4900699;29;20060;-64
2021/11/17 06:57:39;;;;;;;12.70;6.32;;;;;;;5.26;100.00;97092.63;4907233;29;20048;-63
2021/11/17 07:00:10;;;;;;;10.18;5.38;;;;;;;5.28;100.00;97086.88;4898111;29;20052;-63
2021/11/17 07:02:36;;;;;;;13.48;6.20;;;;;;;5.27;100.00;97094.19;4900865;29;20048;-64
2021/11/17 07:05:03;;;;;;;13.75;6.50;;;;;;;5.24;100.00;97102.19;4903287;29;20484;-64
2021/11/17 07:07:29;;;;;;;13.50;6.30;;;;;;;5.31;100.00;97100.59;4900470;29;20172;-65
2021/11/17 07:09:55;;;;;;;11.88;6.22;;;;;;;5.28;100.00;97103.97;4899886;29;20181;-65
2021/11/17 07:12:20;;;;;;;14.15;7.28;;;;;;;5.35;100.00;97104.25;4892232;29;20040;-64
2021/11/17 07:14:47;;;;;;;15.13;7.40;;;;;;;5.32;100.00;97104.13;4879635;29;20044;-65
2021/11/17 07:17:13;;;;;;;16.90;7.75;;;;;;;5.38;100.00;97108.25;4878973;29;20135;-65
2021/11/17 07:19:39;;;;;;;12.43;7.18;;;;;;;5.44;100.00;97117.84;4898121;29;20055;-65
2021/11/17 07:22:09;;;;;;;17.42;6.93;;;;;;;5.38;100.00;97121.03;4876471;29;20044;-63
2021/11/17 07:24:36;;;;;;;15.10;7.85;;;;;;;5.24;100.00;97121.22;4891898;29;20045;-66
2021/11/17 07:27:02;;;;;;;15.85;8.43;;;;;;;5.10;100.00;97114.03;4884008;29;20051;-65
2021/11/17 07:29:28;;;;;;;16.35;8.35;;;;;;;5.02;100.00;97120.25;4895759;29;20064;-65
2021/11/17 07:31:54;;;;;;;13.80;7.53;;;;;;;5.11;100.00;97123.78;4898022;29;20051;-64
2021/11/17 07:34:20;;;;;;;16.55;7.40;;;;;;;5.06;100.00;97134.00;4897393;29;20052;-64
2021/11/17 07:36:46;;;;;;;15.65;7.78;;;;;;;5.13;100.00;97139.75;4901384;29;20049;-62
2021/11/17 07:39:14;;;;;;;13.20;7.20;;;;;;;5.19;100.00;97141.19;4910333;29;20041;-63
2021/11/17 07:41:46;;;;;;;18.08;8.75;;;;;;;5.23;100.00;97153.00;4896775;29;20040;-65
2021/11/17 07:44:16;;;;;;;13.30;7.40;;;;;;;5.12;100.00;97152.53;4885426;29;20040;-65
2021/11/17 07:46:42;;;;;;;24.65;9.25;;;;;;;5.29;100.00;97149.00;4925432;29;20524;-65
2021/11/17 07:49:07;;;;;;;19.67;8.32;;;;;;;5.19;100.00;97151.28;4921507;29;20050;-65
2021/11/17 07:51:33;;;;;;;19.30;8.15;;;;;;;5.10;100.00;97162.13;4926456;29;20044;-63
2021/11/17 07:53:58;;;;;;;15.35;7.72;;;;;;;5.23;100.00;97158.44;4933318;29;20048;-64
2021/11/17 07:56:24;;;;;;;19.38;7.80;;;;;;;5.26;100.00;97168.66;4938608;29;20650;-64
2021/11/17 07:58:50;;;;;;;15.63;7.88;;;;;;;5.41;100.00;97166.59;4911529;29;20040;-64
2021/11/17 08:01:15;;;;;;;16.13;8.43;;;;;;;5.48;100.00;97159.53;4903181;29;20114;-63
2021/11/17 08:03:46;;;;;;;17.65;7.70;;;;;;;5.54;100.00;97162.88;4921448;29;20059;-65
2021/11/17 08:06:15;;;;;;;20.05;8.77;;;;;;;5.46;100.00;97167.22;4918775;29;20036;-65
2021/11/17 08:08:41;;;;;;;17.45;7.85;;;;;;;5.41;100.00;97174.72;4896167;29;20142;-65
2021/11/17 08:11:12;;;;;;;15.35;7.47;;;;;;;5.55;100.00;97187.00;4906740;29;20068;-64
2021/11/17 08:13:38;;;;;;;16.83;8.75;;;;;;;5.56;100.00;97185.09;4917461;29;20048;-65
2021/11/17 08:16:05;;;;;;;14.77;7.63;;;;;;;5.58;100.00;97187.47;4910341;29;20100;-63
2021/11/17 08:18:33;;;;;;;15.20;7.05;;;;;;;5.64;100.00;97194.38;4924684;29;20071;-64
2021/11/17 08:20:59;;;;;;;19.85;7.68;;;;;;;5.55;100.00;97192.44;4940090;29;20407;-64
2021/11/17 08:23:24;;;;;;;15.18;7.18;;;;;;;5.65;100.00;97196.75;4926123;29;20639;-65
2021/11/17 08:25:49;;;;;;;15.20;7.97;;;;;;;5.63;100.00;97187.31;4921870;29;20777;-66
2021/11/17 08:28:16;;;;;;;13.88;6.85;;;;;;;5.75;100.00;97188.25;4902937;29;20040;-65
2021/11/17 08:30:43;;;;;;;16.65;7.25;;;;;;;5.91;100.00;97187.75;4907750;29;20048;-65
2021/11/17 08:33:10;;;;;;;16.58;8.18;;;;;;;5.98;100.00;97195.41;4901694;29;20050;-65
2021/11/17 08:35:36;;;;;;;15.27;6.97;;;;;;;6.02;100.00;97201.81;4906081;29;20489;-65
2021/11/17 08:38:04;;;;;;;14.95;7.30;;;;;;;6.08;99.59;97198.59;4903377;29;20446;-65
2021/11/17 08:40:34;;;;;;;14.90;6.55;;;;;;;6.25;99.63;97203.19;4903821;29;20044;-64
2021/11/17 08:42:59;;;;;;;17.27;8.23;;;;;;;6.24;98.33;97204.28;4906507;29;20040;-65
2021/11/17 08:45:26;;;;;;;16.50;6.78;;;;;;;6.39;97.16;97194.81;4899803;29;20083;-65
2021/11/17 08:47:53;;;;;;;16.23;7.20;;;;;;;6.35;95.64;97199.28;4906860;29;20131;-63
2021/11/17 08:50:22;;;;;;;15.68;6.80;;;;;;;6.35;97.33;97199.28;4901872;29;20051;-65
2021/11/17 08:52:49;;;;;;;13.27;6.60;;;;;;;6.23;96.49;97208.16;4906422;29;20130;-64
2021/11/17 08:55:15;;;;;;;14.82;6.22;;;;;;;6.45;95.55;97209.03;4901384;29;20044;-65
2021/11/17 08:57:42;;;;;;;14.88;6.05;;;;;;;6.58;94.55;97218.09;4905243;29;20059;-64
2021/11/17 09:00:10;;;;;;;13.77;6.22;;;;;;;6.63;93.30;97223.34;4903682;29;20572;-63
2021/11/17 09:02:40;;;;;;;11.25;6.03;;;;;;;6.45;93.53;97226.16;4957947;23;20050;-63
2021/11/17 09:05:12;;;;;;;13.02;5.75;;;;;;;6.54;93.44;97234.28;4996223;28;20048;-62
2021/11/17 09:07:39;;;;;;;11.00;5.25;;;;;;;6.62;90.63;97238.88;5003301;28;20052;-68
2021/11/17 09:10:07;;;;;;;10.27;5.25;;;;;;;6.64;88.68;97238.56;4995988;28;20132;-63
2021/11/17 09:12:33;;;;;;;10.93;5.05;;;;;;;6.60;90.27;97243.06;4998930;28;20050;-62
2021/11/17 09:14:58;;;;;;;12.52;7.00;;;;;;;6.41;93.08;97246.16;5002091;28;20133;-64
2021/11/17 09:17:23;;;;;;;13.02;5.85;;;;;;;6.55;92.00;97251.41;4997558;28;20391;-64
2021/11/17 09:19:49;;;;;;;10.30;5.38;;;;;;;6.56;90.80;97255.72;4999377;28;20096;-61
2021/11/17 09:22:14;;;;;;;9.45;4.78;;;;;;;6.66;88.62;97263.50;4997662;28;20065;-61
2021/11/17 09:24:40;;;;;;;11.57;5.85;;;;;;;6.56;90.66;97251.06;5001090;28;20052;-64
2021/11/17 09:27:06;;;;;;;15.85;5.30;;;;;;;6.55;90.60;97257.63;4996049;28;20037;-64
2021/11/17 09:29:33;;;;;;;10.32;4.97;;;;;;;6.65;89.06;97256.50;5000507;28;20157;-60
2021/11/17 09:31:59;;;;;;;11.38;5.55;;;;;;;6.64;91.98;97254.88;5001664;28;20569;-64
2021/11/17 09:34:25;;;;;;;8.32;4.95;;;;;;;6.77;89.72;97253.06;4996839;28;20065;-60
2021/11/17 09:36:50;;;;;;;15.10;5.65;;;;;;;7.00;88.39;97248.13;4995995;28;20476;-61
2021/11/17 09:39:16;;;;;;;7.47;4.07;;;;;;;7.19;86.07;97244.97;4997423;28;20049;-61
2021/11/17 09:41:48;;;;;;;12.90;5.25;;;;;;;7.10;87.33;97255.13;5001866;28;20137;-58
2021/11/17 09:44:19;;;;;;;8.27;4.53;;;;;;;6.78;87.99;97255.44;4993822;28;20041;-61
2021/11/17 09:46:48;;;;;;;9.45;4.90;;;;;;;7.13;86.24;97257.19;5000344;28;20042;-61
2021/11/17 09:49:30;;;;;;;9.05;5.22;;;;;;;7.25;85.64;97255.31;4994663;28;20038;-59
2021/11/17 09:52:00;;;;;;;9.20;4.35;;;;;;;7.26;86.02;97265.09;4996015;28;20107;-61
2021/11/17 09:54:34;;;;;;;9.13;4.05;;;;;;;7.45;85.09;97259.22;4995952;28;20045;-61
2021/11/17 09:57:14;;;;;;;9.18;4.65;;;;;;;7.34;84.83;97258.00;5002152;28;20065;-62
2021/11/17 09:59:46;;;;;;;9.48;4.20;;;;;;;7.46;83.37;97268.19;5013259;28;20065;-61
2021/11/17 10:02:15;;;;;;;8.68;4.20;;;;;;;7.49;82.14;97266.72;5006283;28;20042;-61
2021/11/17 10:04:57;;;;;;;6.18;3.95;;;;;;;7.26;83.59;97264.31;5001047;28;20048;-59
2021/11/17 10:13:35;;;;;;;5.88;3.40;;;;;;;7.31;80.04;97264.13;4994649;28;20049;-62
2021/11/17 10:16:02;;;;;;;10.05;4.32;;;;;;;7.11;82.02;97254.00;4995671;28;20088;-59
2021/11/17 10:18:43;;;;;;;8.85;4.07;;;;;;;7.02;83.01;97254.03;4996613;28;20139;-61
2021/11/17 10:21:20;;;;;;;7.68;3.80;;;;;;;7.34;82.17;97249.81;4996036;28;20495;-62
2021/11/17 10:23:49;;;;;;;7.65;4.53;;;;;;;7.28;82.74;97260.13;4983218;28;20081;-63
2021/11/17 10:26:17;;;;;;;8.80;4.40;;;;;;;7.33;81.80;97261.06;4995250;28;20049;-61
2021/11/17 10:28:42;;;;;;;6.18;3.55;;;;;;;7.35;81.66;97259.59;4990804;28;20084;-62
2021/11/17 10:31:11;;;;;;;6.65;3.90;;;;;;;7.43;80.49;97260.66;4988567;28;20482;-59
2021/11/17 10:33:45;;;;;;;4.15;2.67;;;;;;;7.35;79.31;97261.53;5002857;28;20042;-62
2021/11/17 10:36:20;;;;;;;6.47;3.75;;;;;;;7.21;80.88;97259.84;4998954;28;20540;-59
2021/11/17 10:38:49;;;;;;;5.63;3.67;;;;;;;6.92;80.99;97266.13;5009863;28;20054;-60
2021/11/17 10:41:31;;;;;;;4.45;2.92;;;;;;;7.11;79.95;97256.72;5006045;28;20116;-59
2021/11/17 10:44:09;;;;;;;5.93;2.95;;;;;;;7.34;78.67;97266.16;4991733;28;20038;-59
2021/11/17 10:46:47;;;;;;;5.38;3.08;;;;;;;7.55;77.59;97263.47;4994613;28;20050;-59
2021/11/17 10:49:16;;;;;;;5.75;3.00;;;;;;;7.34;78.52;97257.22;4992319;28;20129;-62
2021/11/17 10:52:09;;;;;;;7.82;3.17;;;;;;;7.49;79.07;97244.91;4994185;28;20386;-59
2021/11/17 10:54:48;;;;;;;6.05;3.42;;;;;;;7.75;76.75;97242.75;4992937;28;20141;-61
2021/11/17 10:57:19;;;;;;;6.53;2.78;;;;;;;7.58;78.18;97241.00;4994345;28;20046;-61
2021/11/17 10:59:44;;;;;;;5.03;3.20;;;;;;;7.47;79.51;97237.88;4998417;28;20115;-60
2021/11/17 11:02:11;;;;;;;4.93;2.92;;;;;;;7.77;78.12;97237.75;4941870;28;1329878;-61
2021/11/17 11:04:43;;;;;;;10.85;2.88;;;;;;;7.85;75.82;97222.47;4991161;28;20054;-63
2021/11/17 11:07:14;;;;;;;6.32;2.85;;;;;;;7.75;75.60;97220.16;4987569;28;20494;-61
2021/11/17 11:10:01;;;;;;;3.65;2.33;;;;;;;7.57;75.70;97219.50;5002261;28;20045;-58
2021/11/17 11:12:30;;;;;;;5.80;2.60;;;;;;;7.30;78.24;97216.19;4992721;28;20113;-60
2021/11/17 11:15:31;;;;;;;4.75;2.70;;;;;;;7.28;77.97;97215.75;5002022;28;20065;-62
2021/11/17 11:18:09;;;;;;;4.78;2.42;;;;;;;7.45;77.93;97218.34;4984833;28;20077;-60
2021/11/17 11:20:43;;;;;;;4.53;2.58;;;;;;;7.35;78.32;97217.94;5007587;28;20049;-61
2021/11/17 11:23:16;;;;;;;4.07;2.00;;;;;;;7.12;79.28;97226.44;4998370;28;20037;-61
2021/11/17 11:25:47;;;;;;;5.18;2.58;;;;;;;7.16;80.51;97221.13;5003345;28;20418;-60
2021/11/17 11:28:26;;;;;;;7.10;3.65;;;;;;;6.99;81.35;97220.09;4995364;28;20576;-61
2021/11/17 11:31:00;;;;;;;6.88;3.13;;;;;;;6.80;81.75;97233.34;4999033;28;20078;-62
2021/11/17 11:33:32;;;;;;;4.43;2.75;;;;;;;6.92;82.39;97227.22;4998092;28;20143;-62
2021/11/17 11:36:10;;;;;;;5.65;2.35;;;;;;;7.08;82.79;97236.41;4999513;28;20045;-61
2021/11/17 11:38:59;;;;;;;7.35;2.83;;;;;;;6.96;80.67;97234.38;5001380;28;20482;-61
2021/11/17 11:41:49;;;;;;;4.00;2.20;;;;;;;7.08;81.56;97234.47;4968829;28;20137;-60
2021/11/17 11:44:20;;;;;;;;;;;;;;;7.10;81.44;97225.97;4994198;28;20042;-61
2021/11/17 11:47:09;;;;;;;8.05;3.28;;;;;;;7.45;79.53;97228.41;4997736;28;20012;-60
2021/11/17 11:49:47;;;;;;;5.68;2.70;;;;;;;7.47;80.08;97231.59;4998269;28;20045;-58
2021/11/17 11:52:37;;;;;;;4.50;2.42;;;;;;;7.13;81.63;97228.03;4997080;28;20065;-60
2021/11/17 11:55:03;;;;;;;11.98;6.40;;;;;;;6.77;82.46;97226.66;4999163;28;20104;-64
2021/11/17 11:57:43;;;;;;;4.05;2.08;;;;;;;6.73;82.98;97228.41;5001043;28;20045;-61
2021/11/17 12:00:26;;;;;;;3.45;2.15;;;;;;;6.59;82.82;97239.53;4994823;28;20141;-61
2021/11/17 12:02:52;;;;;;;4.10;1.90;;;;;;;6.61;84.11;97239.19;5001909;28;20065;-63
2021/11/17 12:05:32;;;;;;;3.28;2.05;;;;;;;6.73;83.84;97235.78;4997443;28;20077;-60
2021/11/17 12:08:21;;;;;;;3.45;1.95;;;;;;;6.73;83.87;97231.13;5001657;28;20054;-61
2021/11/17 12:11:07;;;;;;;4.35;2.10;;;;;;;7.03;82.35;97226.47;4998299;28;20047;-63
2021/11/17 12:13:39;;;;;;;5.75;2.40;;;;;;;7.00;81.97;97223.63;4996150;28;21839;-63
2021/11/17 12:16:14;;;;;;;7.00;2.20;;;;;;;7.16;81.17;97223.84;4991657;28;20491;-63
2021/11/17 12:18:50;;;;;;;5.82;2.10;;;;;;;7.18;79.29;97216.91;4997102;28;20050;-62
2021/11/17 12:21:24;;;;;;;3.55;2.17;;;;;;;7.11;80.12;97215.84;4992715;28;20072;-63
2021/11/17 12:24:04;;;;;;;3.05;1.88;;;;;;;7.14;80.64;97212.47;4999777;28;20049;-60
2021/11/17 12:26:34;;;;;;;3.42;1.83;;;;;;;7.13;81.73;97206.25;5000043;28;20112;-60
2021/11/17 12:29:21;;;;;;;5.72;1.90;;;;;;;7.04;80.17;97209.03;5001395;28;20053;-62
2021/11/17 12:31:55;;;;;;;4.03;2.20;;;;;;;6.84;80.61;97213.31;5001348;28;20042;-63
2021/11/17 12:34:29;;;;;;;5.72;2.78;;;;;;;6.89;80.69;97217.75;4996620;28;20037;-59
2021/11/17 12:36:59;;;;;;;4.82;2.40;;;;;;;6.85;80.16;97205.94;5000433;28;20034;-60
2021/11/17 12:39:50;;;;;;;2.72;1.80;;;;;;;6.77;79.56;97207.59;4994135;28;20511;-61
2021/11/17 12:42:26;;;;;;;4.70;2.90;;;;;;;6.68;80.93;97198.66;4957451;28;20038;-61
2021/11/17 12:44:52;;;;;;;4.75;2.40;;;;;;;6.79;80.81;97210.78;5003310;28;20545;-61
2021/11/17 12:47:43;;;;;;;3.58;1.75;;;;;;;6.98;79.38;97212.25;4996084;28;20050;-62
2021/11/17 12:50:14;;;;;;;6.40;2.70;;;;;;;6.93;80.80;97218.69;4999311;28;20133;-62
2021/11/17 12:52:48;;;;;;;5.45;2.25;;;;;;;6.99;79.60;97228.28;4991343;28;20401;-61
2021/11/17 12:55:22;;;;;;;4.88;2.65;;;;;;;6.66;82.21;97228.13;4994004;28;20042;-61
2021/11/17 12:57:58;;;;;;;5.30;2.47;;;;;;;6.70;81.81;97223.66;5000684;28;20514;-57
2021/11/17 13:00:29;;;;;;;4.65;2.10;;;;;;;6.52;81.65;97228.38;4996804;28;20891;-60
2021/11/17 13:03:05;;;;;;;3.30;2.00;;;;;;;6.45;81.44;97230.81;5000095;28;20108;-58
2021/11/17 13:05:38;;;;;;;3.03;1.80;;;;;;;6.44;82.48;97234.63;4998100;28;20081;-61
2021/11/17 13:08:03;;;;;;;4.05;2.03;;;;;;;6.53;82.52;97226.44;4996315;28;20344;-61
2021/11/17 13:10:38;;;;;;;4.25;2.22;;;;;;;6.59;83.45;97234.09;4999380;28;20057;-63
2021/11/17 13:13:22;;;;;;;4.05;1.63;;;;;;;6.57;82.47;97243.69;4996096;28;20042;-63
2021/11/17 13:15:50;;;;;;;3.25;1.83;;;;;;;6.53;82.33;97237.31;4996908;28;20046;-59
2021/11/17 13:18:34;;;;;;;2.60;1.63;;;;;;;6.61;81.84;97244.63;4998160;28;20056;-59
2021/11/17 13:21:12;;;;;;;4.80;2.00;;;;;;;6.56;81.51;97253.00;5009945;28;20073;-59
2021/11/17 13:23:48;;;;;;;7.45;2.15;;;;;;;6.56;82.15;97242.91;5000974;28;20087;-59
2021/11/17 13:26:33;;;;;;;3.42;1.90;;;;;;;6.52;82.07;97250.16;4996382;28;20060;-60
2021/11/17 13:29:23;;;;;;;2.92;1.63;;;;;;;6.60;82.93;97252.00;4998534;28;20077;-61
2021/11/17 13:32:00;;;;;;;4.78;1.80;;;;;;;6.51;82.97;97252.03;4995370;28;20496;-61
2021/11/17 13:34:41;;;;;;;3.60;1.60;;;;;;;6.54;83.15;97261.50;4991374;28;20064;-61
2021/11/17 13:37:21;;;;;;;2.80;1.70;;;;;;;6.55;83.12;97243.25;4994071;28;20042;-60
2021/11/17 13:39:52;;;;;;;3.45;1.77;;;;;;;6.37;83.43;97251.47;4996498;28;20045;-61
2021/11/17 13:42:18;;;;;;;3.08;1.70;;;;;;;6.41;83.57;97246.16;4995947;28;20046;-60
2021/11/17 13:44:43;;;;;;;3.88;1.70;;;;;;;6.43;82.70;97247.44;4998034;28;20042;-62
2021/11/17 13:47:12;;;;;;;3.15;1.50;;;;;;;6.54;82.75;97242.44;4994484;28;20050;-62
2021/11/17 13:49:40;;;;;;;3.45;1.77;;;;;;;6.55;83.04;97249.47;4999917;28;20077;-62
2021/11/17 13:52:07;;;;;;;5.35;2.22;;;;;;;6.65;81.78;97245.59;4991862;28;20168;-61
2021/11/17 13:54:33;;;;;;;3.60;1.73;;;;;;;6.64;82.97;97255.66;4996923;28;20077;-62
2021/11/17 13:57:02;;;;;;;3.85;1.60;;;;;;;6.74;83.25;97256.44;5000405;28;20074;-63
2021/11/17 13:59:27;;;;;;;2.47;1.52;;;;;;;6.63;82.77;97269.63;4992465;28;20053;-62
2021/11/17 14:01:56;;;;;;;3.20;1.70;;;;;;;6.65;81.96;97267.38;4992977;28;20046;-61
2021/11/17 14:04:22;;;;;;;4.45;1.98;;;;;;;6.63;82.24;97269.63;4992577;28;20050;-62
2021/11/17 14:06:50;;;;;;;7.53;3.17;;;;;;;6.53;83.13;97276.22;5005072;28;20506;-60
2021/11/17 14:09:16;;;;;;;5.63;3.47;;;;;;;6.87;81.89;97272.53;4993558;28;20049;-60
2021/11/17 14:11:41;;;;;;;6.40;3.00;;;;;;;6.92;82.79;97271.56;4999057;28;20103;-61
2021/11/17 14:14:06;;;;;;;3.83;2.15;;;;;;;7.16;84.42;97264.69;4991118;28;20133;-60
2021/11/17 14:16:32;;;;;;;8.05;3.35;;;;;;;7.21;83.09;97270.75;4995969;28;20045;-61
2021/11/17 14:18:57;;;;;;;4.13;2.78;;;;;;;7.10;80.61;97272.28;5002054;28;20098;-59
2021/11/17 14:21:25;;;;;;;5.28;3.85;;;;;;;7.07;81.95;97281.88;5003317;28;21082;-62
2021/11/17 14:23:50;;;;;;;5.22;3.28;;;;;;;7.01;82.28;97285.16;4998298;28;20042;-60
2021/11/17 14:26:17;;;;;;;4.20;2.70;;;;;;;6.85;81.42;97287.63;4994692;28;20494;-59
2021/11/17 14:28:52;;;;;;;5.32;2.70;;;;;;;6.66;83.74;97291.56;4999225;28;20597;-60
2021/11/17 14:31:33;;;;;;;7.30;2.92;;;;;;;6.60;84.78;97286.59;4990888;28;20442;-62
2021/11/17 14:34:01;;;;;;;7.88;3.75;;;;;;;6.68;86.10;97289.31;4994825;28;20038;-60
2021/11/17 14:36:31;;;;;;;5.78;2.85;;;;;;;6.54;84.80;97291.44;4994053;28;20072;-60
2021/11/17 14:39:00;;;;;;;6.03;2.83;;;;;;;6.57;84.36;97290.78;4981025;28;20502;-60
2021/11/17 14:41:26;;;;;;;5.90;3.10;;;;;;;6.72;84.34;97296.78;4991483;28;20766;-60